Iola, Wisconsin
Current Conditions -  °F | °C
As of 6:35 AM on Monday 20 Oct 2014 (Local Time) from KPCZ Reporting Station
Clear Clear  
Wind Chill: 43°   Ceiling: Unl
Heat Index: 46°   Visibility: 10mi
Dew Point: 45°   Wind: 6mph
Humidity: 96%   Direction: 310°NW
Pressure: 29.82"   Gusts: NA
Location:  44.51°N, 89.13°W
Report Text: KPCZ 201135Z AUTO 31005KT 10SM CLR 08/07 A2982 RMK AO2 T00770071
Loading
Personal Weather Stations






























Interactive Weather Map
Tropical Storm Tracking
New forecast layout! Learn more

10-Day Weather Forecast

Advertisements
Track Severe Weather on mobile